Kemerovo, Russia
Current Conditions -  °F | °C
As of 2:00 AM on Saturday 25 Oct 2014 (Local Time) from UNEE Reporting Station
Haze Haze  
Wind Chill: 32°   Ceiling: 2000
Heat Index: 39°   Visibility: 3mi
Dew Point: 39°   Wind: 11mph
Humidity: 100%   Direction: 150°SSE
Pressure: 29.88"   Gusts: NA
Location:  55.33°N, 86.08°E
Report Text: UNEE 241900Z 15005MPS 5000 BR BKN020CB OVC066 04/04 Q1012 NOSIGRMK QFE736 23290055
Loading
Personal Weather Stations






























Interactive Weather Map
Tropical Storm Tracking
New forecast layout! Learn more

10-Day Weather Forecast

Advertisements
Track Severe Weather on mobile